createdAt,value
2022-10-11T00:00:38.853Z,6.75
2022-10-11T00:03:26.372Z,6.80
2022-10-11T00:06:14.200Z,6.83
2022-10-11T00:09:01.429Z,6.98
2022-10-11T00:11:49.211Z,6.88
2022-10-11T00:14:37.172Z,6.73
2022-10-11T00:17:25.747Z,6.69
2022-10-11T00:20:14.151Z,6.65
2022-10-11T00:23:01.555Z,6.60
2022-10-11T00:25:58.051Z,6.60
2022-10-11T00:28:45.807Z,6.66
2022-10-11T00:31:35.660Z,6.75
2022-10-11T00:34:25.012Z,6.64
2022-10-11T00:37:12.296Z,6.63
2022-10-11T00:39:59.610Z,6.57
2022-10-11T00:42:47.737Z,6.53
2022-10-11T00:46:04.481Z,6.50
2022-10-11T00:48:57.813Z,6.51
2022-10-11T00:51:51.831Z,6.51
2022-10-11T00:54:42.859Z,6.48
2022-10-11T00:57:35.460Z,6.45
2022-10-11T01:00:22.837Z,6.29
2022-10-11T01:03:10.777Z,6.29
2022-10-11T01:05:58.125Z,6.31
2022-10-11T01:08:46.874Z,6.42
2022-10-11T01:11:34.458Z,6.41
2022-10-11T01:14:43.593Z,6.46
2022-10-11T01:17:41.412Z,6.45
2022-10-11T01:20:37.596Z,6.42
2022-10-11T01:23:50.802Z,6.60
2022-10-11T01:27:05.104Z,6.47
2022-10-11T01:30:04.083Z,6.36
2022-10-11T01:33:04.406Z,6.27
2022-10-11T01:36:01.947Z,6.30
2022-10-11T01:38:54.570Z,6.23
2022-10-11T01:41:45.855Z,6.14
2022-10-11T01:44:35.712Z,6.14
2022-10-11T01:47:23.966Z,6.05
2022-10-11T01:50:35.082Z,6.03
2022-10-11T01:53:47.080Z,5.96
2022-10-11T01:56:57.379Z,6.01
2022-10-11T01:59:56.481Z,5.98
2022-10-11T02:02:54.800Z,5.93
2022-10-11T02:05:50.873Z,5.96
2022-10-11T02:08:45.856Z,5.91
2022-10-11T02:11:35.100Z,5.74
2022-10-11T02:14:27.666Z,5.85
2022-10-11T02:17:19.810Z,5.89
2022-10-11T02:20:14.456Z,5.91
2022-10-11T02:23:09.169Z,5.82
2022-10-11T02:25:58.924Z,5.70
2022-10-11T02:28:48.973Z,5.66
2022-10-11T02:31:37.698Z,5.64
2022-10-11T02:34:28.468Z,5.62
2022-10-11T02:37:23.781Z,5.62
2022-10-11T02:40:18.564Z,5.62
2022-10-11T02:43:10.186Z,5.58
2022-10-11T02:46:00.546Z,5.53
2022-10-11T02:48:48.566Z,5.52
2022-10-11T02:51:37.253Z,5.53
2022-10-11T02:54:24.546Z,5.50
2022-10-11T02:57:13.435Z,5.52
2022-10-11T03:00:00.426Z,5.47
2022-10-11T03:02:48.475Z,5.60
2022-10-11T03:05:40.719Z,5.50
2022-10-11T03:08:28.070Z,5.44
2022-10-11T03:11:15.205Z,5.40
2022-10-11T03:14:04.009Z,5.42
2022-10-11T03:16:51.629Z,5.47
2022-10-11T03:19:38.692Z,5.53
2022-10-11T03:22:26.142Z,5.50
2022-10-11T03:25:14.272Z,5.42
2022-10-11T03:28:01.517Z,5.41
2022-10-11T03:30:50.391Z,5.29
2022-10-11T03:33:38.146Z,5.38
2022-10-11T03:36:25.530Z,5.62
2022-10-11T03:39:12.518Z,5.47
2022-10-11T03:42:00.028Z,5.35
2022-10-11T03:44:49.619Z,5.33
2022-10-11T03:47:40.165Z,5.24
2022-10-11T03:50:27.467Z,5.23
2022-10-11T03:53:14.761Z,5.18
2022-10-11T03:56:07.399Z,5.11
2022-10-11T03:58:55.961Z,5.08
2022-10-11T04:01:43.214Z,5.09
2022-10-11T04:04:32.070Z,5.25
2022-10-11T04:07:19.630Z,5.20
2022-10-11T04:10:08.360Z,5.09
2022-10-11T04:12:55.332Z,5.05
2022-10-11T04:15:42.835Z,5.10
2022-10-11T04:18:30.082Z,5.06
2022-10-11T04:21:19.128Z,5.06
2022-10-11T04:24:07.375Z,5.03
2022-10-11T04:26:55.154Z,5.03
2022-10-11T04:29:42.885Z,5.02
2022-10-11T04:32:29.955Z,4.96
2022-10-11T04:35:17.379Z,4.98
2022-10-11T04:38:06.028Z,5.00
2022-10-11T04:40:53.138Z,4.96
2022-10-11T04:43:40.482Z,4.90
2022-10-11T04:46:28.130Z,4.88
2022-10-11T04:49:15.355Z,4.99
2022-10-11T04:52:03.050Z,5.01
2022-10-11T04:54:51.631Z,5.06
2022-10-11T04:57:38.947Z,5.11
2022-10-11T05:00:27.608Z,5.09
2022-10-11T05:03:15.439Z,4.97
2022-10-11T05:06:05.613Z,4.99
2022-10-11T05:08:53.948Z,4.84
2022-10-11T05:11:43.225Z,4.75
2022-10-11T05:14:30.828Z,4.68
2022-10-11T05:17:17.828Z,4.67
2022-10-11T05:20:06.094Z,4.71
2022-10-11T05:22:53.407Z,4.67
2022-10-11T05:25:40.745Z,4.64
2022-10-11T05:28:29.589Z,4.64
2022-10-11T05:31:17.683Z,4.60
2022-10-11T05:34:05.300Z,4.58
2022-10-11T05:36:52.341Z,4.55
2022-10-11T05:39:40.072Z,4.55
2022-10-11T05:42:27.587Z,4.57
2022-10-11T05:45:16.792Z,4.59
2022-10-11T05:48:03.775Z,4.62
2022-10-11T05:50:51.238Z,4.66
2022-10-11T05:53:39.004Z,4.67
2022-10-11T05:56:27.702Z,4.74
2022-10-11T05:59:15.094Z,4.76
2022-10-11T06:02:04.025Z,4.78
2022-10-11T06:04:51.896Z,4.82
2022-10-11T06:07:39.586Z,4.91
2022-10-11T06:10:27.080Z,4.98
2022-10-11T06:13:14.147Z,5.14
2022-10-11T06:16:21.018Z,5.15
2022-10-11T06:19:09.834Z,5.19
2022-10-11T06:21:57.498Z,5.22
2022-10-11T06:24:45.188Z,5.30
2022-10-11T06:27:33.008Z,5.36
2022-10-11T06:30:20.445Z,5.44
2022-10-11T06:33:07.753Z,5.50
2022-10-11T06:35:59.979Z,5.54
2022-10-11T06:38:47.411Z,5.74
2022-10-11T06:41:34.508Z,5.88
2022-10-11T06:44:21.867Z,6.17
2022-10-11T06:47:10.198Z,6.51
2022-10-11T06:49:57.817Z,6.81
2022-10-11T06:52:48.298Z,6.91
2022-10-11T06:55:36.267Z,7.03
2022-10-11T06:58:23.759Z,7.13
2022-10-11T07:01:13.786Z,7.21
2022-10-11T07:04:03.139Z,7.44
2022-10-11T07:06:50.997Z,7.43
2022-10-11T07:09:39.860Z,7.38
2022-10-11T07:12:27.328Z,7.50
2022-10-11T07:15:14.462Z,7.72
2022-10-11T07:18:02.289Z,7.78
2022-10-11T07:20:50.658Z,7.83
2022-10-11T07:23:38.326Z,8.07
2022-10-11T07:26:28.101Z,8.19
2022-10-11T07:29:16.162Z,8.25
2022-10-11T07:32:03.321Z,8.40
2022-10-11T07:34:50.738Z,8.75
2022-10-11T07:37:37.917Z,9.12
2022-10-11T07:40:25.315Z,9.40
2022-10-11T07:43:15.019Z,9.71
2022-10-11T07:46:04.846Z,10.09
2022-10-11T07:48:52.354Z,10.42
2022-10-11T07:51:39.644Z,10.51
2022-10-11T07:54:27.417Z,10.83
2022-10-11T07:57:15.640Z,10.90
2022-10-11T08:00:05.039Z,10.92
2022-10-11T08:02:59.476Z,11.13
2022-10-11T08:05:46.415Z,11.26
2022-10-11T08:08:33.566Z,11.22
2022-10-11T08:11:22.361Z,11.20
2022-10-11T08:14:11.491Z,11.31
2022-10-11T08:17:00.310Z,11.31
2022-10-11T08:19:47.799Z,11.41
2022-10-11T08:22:35.725Z,11.59
2022-10-11T08:25:23.240Z,11.75
2022-10-11T08:28:10.746Z,11.67
2022-10-11T08:30:58.635Z,11.76
2022-10-11T08:33:47.774Z,11.91
2022-10-11T08:36:35.155Z,12.03
2022-10-11T08:39:23.675Z,12.18
2022-10-11T08:42:18.492Z,12.33
2022-10-11T08:45:11.787Z,12.44
2022-10-11T08:48:07.540Z,12.38
2022-10-11T08:50:57.109Z,12.48
2022-10-11T08:53:50.209Z,12.63
2022-10-11T08:56:40.093Z,12.89
2022-10-11T08:59:37.352Z,13.09
2022-10-11T09:03:02.819Z,12.86
2022-10-11T09:05:59.595Z,13.10
2022-10-11T09:09:03.909Z,12.96
2022-10-11T09:12:05.929Z,13.43
2022-10-11T09:15:12.748Z,13.75
2022-10-11T09:18:20.209Z,13.79
2022-10-11T09:21:21.202Z,13.84
2022-10-11T09:24:27.997Z,14.00
2022-10-11T09:27:33.074Z,13.88
2022-10-11T09:30:28.932Z,14.09
2022-10-11T09:33:21.244Z,13.94
2022-10-11T09:36:20.780Z,13.65
2022-10-11T09:39:28.688Z,13.74
2022-10-11T09:42:16.261Z,13.99
2022-10-11T09:45:04.394Z,14.04
2022-10-11T09:47:54.923Z,13.84
2022-10-11T09:50:45.312Z,13.97
2022-10-11T09:53:57.867Z,14.05
2022-10-11T09:56:46.929Z,14.19
2022-10-11T09:59:35.868Z,14.34
2022-10-11T10:02:24.832Z,14.08
2022-10-11T10:05:18.424Z,14.07
2022-10-11T10:08:23.232Z,14.22
2022-10-11T10:11:12.830Z,14.50
2022-10-11T10:13:59.860Z,14.59
2022-10-11T10:16:47.673Z,14.65
2022-10-11T10:19:44.921Z,14.57
2022-10-11T10:22:36.867Z,14.52
2022-10-11T10:25:31.901Z,14.40
2022-10-11T10:28:22.958Z,14.38
2022-10-11T10:31:23.288Z,14.58
2022-10-11T10:34:22.195Z,14.62
2022-10-11T10:37:19.507Z,14.56
2022-10-11T10:40:11.316Z,14.57
2022-10-11T10:42:59.647Z,14.36
2022-10-11T10:46:23.953Z,14.45
2022-10-11T10:52:57.785Z,14.44
2022-10-11T10:55:47.867Z,14.57
2022-10-11T10:58:55.148Z,14.46
2022-10-11T11:01:57.164Z,14.28
2022-10-11T11:04:49.787Z,14.38
2022-10-11T11:07:45.018Z,14.24
2022-10-11T11:10:37.811Z,14.26
2022-10-11T11:13:33.285Z,14.10
2022-10-11T11:16:29.154Z,14.20
2022-10-11T11:19:27.953Z,14.32
2022-10-11T11:22:28.067Z,14.24
2022-10-11T11:25:28.734Z,14.28
2022-10-11T11:28:49.804Z,14.31
2022-10-11T11:31:51.787Z,14.45
2022-10-11T11:34:45.165Z,14.44
2022-10-11T11:37:35.741Z,14.47
2022-10-11T11:40:35.008Z,14.57
2022-10-11T11:43:29.261Z,14.33
2022-10-11T11:46:22.031Z,14.10
2022-10-11T11:49:18.676Z,14.09
2022-10-11T11:52:08.897Z,14.05
2022-10-11T11:55:06.132Z,14.14
2022-10-11T11:58:06.049Z,14.18
2022-10-11T12:01:03.209Z,14.20
2022-10-11T12:03:55.138Z,13.96
2022-10-11T12:06:58.119Z,14.15
2022-10-11T12:09:55.423Z,13.85
2022-10-11T12:12:43.059Z,14.03
2022-10-11T12:15:30.592Z,14.04
2022-10-11T12:18:18.317Z,14.23
2022-10-11T12:21:09.072Z,14.36
2022-10-11T12:23:58.000Z,14.28
2022-10-11T12:26:48.334Z,14.29
2022-10-11T12:29:48.187Z,14.38
2022-10-11T12:32:52.634Z,14.48
2022-10-11T12:36:01.518Z,14.40
2022-10-11T12:39:31.813Z,14.47
2022-10-11T12:42:27.068Z,14.44
2022-10-11T12:45:34.807Z,14.55
2022-10-11T12:48:53.422Z,14.74
2022-10-11T12:51:52.987Z,14.78
2022-10-11T12:54:59.730Z,14.96
2022-10-11T12:58:27.168Z,14.82
2022-10-11T13:01:22.251Z,14.78
2022-10-11T13:04:12.730Z,14.66
2022-10-11T13:07:06.859Z,14.56
2022-10-11T13:09:55.735Z,14.40
2022-10-11T13:12:50.507Z,14.41
2022-10-11T13:15:39.382Z,14.40
2022-10-11T13:18:28.093Z,14.45
2022-10-11T13:21:23.212Z,14.48
2022-10-11T13:24:16.157Z,14.60
2022-10-11T13:27:04.907Z,14.72
2022-10-11T13:29:54.501Z,14.48
2022-10-11T13:32:44.258Z,14.54
2022-10-11T13:35:34.740Z,14.80
2022-10-11T13:38:24.874Z,14.72
2022-10-11T13:41:12.411Z,14.59
2022-10-11T13:44:01.589Z,14.26
2022-10-11T13:46:49.859Z,14.34
2022-10-11T13:49:39.906Z,14.41
2022-10-11T13:52:27.990Z,14.62
2022-10-11T13:55:25.142Z,14.66
2022-10-11T13:58:19.062Z,14.70
2022-10-11T14:01:17.465Z,14.70
2022-10-11T14:04:07.441Z,14.52
2022-10-11T14:06:59.593Z,14.40
2022-10-11T14:09:49.002Z,14.45
2022-10-11T14:12:40.611Z,14.33
2022-10-11T14:15:31.087Z,14.33
2022-10-11T14:18:40.369Z,14.38
2022-10-11T14:21:31.732Z,14.35
2022-10-11T14:24:21.902Z,14.28
2022-10-11T14:27:18.620Z,14.27
2022-10-11T14:30:26.071Z,14.38
2022-10-11T14:33:14.127Z,14.34
2022-10-11T14:36:01.744Z,14.40
2022-10-11T14:38:48.940Z,14.55
2022-10-11T14:41:38.044Z,14.66
2022-10-11T14:44:25.911Z,14.76
2022-10-11T14:47:16.811Z,14.87
2022-10-11T14:50:22.271Z,14.83
2022-10-11T14:53:11.765Z,14.80
2022-10-11T14:55:59.293Z,14.85
2022-10-11T14:58:48.120Z,14.76
2022-10-11T15:01:35.964Z,14.64
2022-10-11T15:04:25.398Z,14.65
2022-10-11T15:07:14.173Z,14.68
2022-10-11T15:10:01.726Z,14.61
2022-10-11T15:12:49.544Z,14.55
2022-10-11T15:15:41.586Z,14.50
2022-10-11T15:18:30.152Z,14.39
2022-10-11T15:21:18.798Z,14.30
2022-10-11T15:24:06.927Z,14.22
2022-10-11T15:26:54.358Z,14.23
2022-10-11T15:29:41.788Z,14.26
2022-10-11T15:32:30.713Z,14.10
2022-10-11T15:35:19.140Z,14.14
2022-10-11T15:38:06.279Z,14.05
2022-10-11T15:40:54.752Z,14.01
2022-10-11T15:43:43.520Z,14.08
2022-10-11T15:46:30.898Z,13.94
2022-10-11T15:49:20.429Z,13.81
2022-10-11T15:52:07.981Z,13.73
2022-10-11T15:54:56.032Z,13.69
2022-10-11T15:57:43.451Z,13.58
2022-10-11T16:00:31.458Z,13.54
2022-10-11T16:03:19.650Z,13.49
2022-10-11T16:06:09.230Z,13.40
2022-10-11T16:08:57.247Z,13.29
2022-10-11T16:11:44.710Z,13.27
2022-10-11T16:14:31.870Z,13.15
2022-10-11T16:17:19.159Z,13.04
2022-10-11T16:20:08.417Z,13.04
2022-10-11T16:22:58.104Z,12.79
2022-10-11T16:25:45.848Z,12.60
2022-10-11T16:28:34.364Z,12.48
2022-10-11T16:31:21.899Z,12.38
2022-10-11T16:34:09.296Z,12.25
2022-10-11T16:36:56.761Z,12.10
2022-10-11T16:39:45.608Z,11.99
2022-10-11T16:42:34.060Z,11.87
2022-10-11T16:45:21.956Z,11.71
2022-10-11T16:48:09.215Z,11.58
2022-10-11T16:51:06.482Z,11.38
2022-10-11T16:53:54.255Z,11.24
2022-10-11T16:56:43.368Z,11.24
2022-10-11T16:59:31.660Z,11.18
2022-10-11T17:02:21.796Z,10.98
2022-10-11T17:05:09.449Z,10.86
2022-10-11T17:07:56.881Z,10.81
2022-10-11T17:10:46.244Z,10.68
2022-10-11T17:13:34.999Z,10.59
2022-10-11T17:16:23.251Z,10.53
2022-10-11T17:19:12.750Z,10.45
2022-10-11T17:22:00.693Z,10.30
2022-10-11T17:24:48.447Z,10.19
2022-10-11T17:27:36.039Z,10.09
2022-10-11T17:30:26.100Z,10.21
2022-10-11T17:33:13.537Z,10.05
2022-10-11T17:36:02.547Z,9.77
2022-10-11T17:38:51.752Z,9.71
2022-10-11T17:41:39.617Z,9.62
2022-10-11T17:44:26.931Z,9.56
2022-10-11T17:47:16.037Z,9.48
2022-10-11T17:50:04.042Z,9.32
2022-10-11T17:52:51.397Z,9.34
2022-10-11T17:55:43.323Z,9.28
2022-10-11T17:58:30.713Z,9.20
2022-10-11T18:01:22.376Z,9.20
2022-10-11T18:04:16.500Z,9.11
2022-10-11T18:07:04.216Z,9.00
2022-10-11T18:09:51.962Z,8.90
2022-10-11T18:12:40.142Z,8.81
2022-10-11T18:15:30.988Z,8.78
2022-10-11T18:18:18.353Z,8.73
2022-10-11T18:21:08.024Z,8.60
2022-10-11T18:23:55.916Z,8.58
2022-10-11T18:26:45.329Z,8.55
2022-10-11T18:29:33.011Z,8.46
2022-10-11T18:32:21.057Z,8.42
2022-10-11T18:35:09.382Z,8.42
2022-10-11T18:38:01.001Z,8.42
2022-10-11T18:40:48.671Z,8.37
2022-10-11T18:43:36.405Z,8.35
2022-10-11T18:46:25.797Z,8.33
2022-10-11T18:49:13.935Z,8.20
2022-10-11T18:52:01.290Z,8.10
2022-10-11T18:54:50.602Z,8.10
2022-10-11T18:57:37.813Z,8.01
2022-10-11T19:00:41.614Z,7.90
2022-10-11T19:03:34.121Z,7.84
2022-10-11T19:06:24.705Z,7.84
2022-10-11T19:09:15.221Z,7.88
2022-10-11T19:12:04.110Z,7.81
2022-10-11T19:14:52.053Z,7.74
2022-10-11T19:17:39.381Z,7.69
2022-10-11T19:20:27.442Z,7.64
2022-10-11T19:23:15.258Z,7.66
2022-10-11T19:26:03.645Z,7.59
2022-10-11T19:28:58.709Z,7.46
2022-10-11T19:31:48.330Z,7.50
2022-10-11T19:34:35.897Z,7.33
2022-10-11T19:37:23.357Z,7.27
2022-10-11T19:40:11.993Z,7.24
2022-10-11T19:42:59.592Z,7.19
2022-10-11T19:45:48.978Z,7.11
2022-10-11T19:48:38.722Z,7.07
2022-10-11T19:51:27.778Z,7.04
2022-10-11T19:54:16.165Z,7.03
2022-10-11T19:57:03.574Z,6.98
2022-10-11T19:59:51.646Z,6.95
2022-10-11T20:02:40.352Z,6.95
2022-10-11T20:05:28.463Z,6.95
2022-10-11T20:08:15.907Z,6.91
2022-10-11T20:11:05.375Z,6.92
2022-10-11T20:13:53.779Z,6.81
2022-10-11T20:16:42.507Z,6.72
2022-10-11T20:19:32.102Z,6.79
2022-10-11T20:22:20.181Z,6.76
2022-10-11T20:25:08.619Z,6.71
2022-10-11T20:27:56.021Z,6.64
2022-10-11T20:30:44.400Z,6.58
2022-10-11T20:33:33.855Z,6.53
2022-10-11T20:36:23.882Z,6.47
2022-10-11T20:39:11.378Z,6.46
2022-10-11T20:41:59.154Z,6.44
2022-10-11T20:44:48.390Z,6.41
2022-10-11T20:47:36.047Z,6.39
2022-10-11T20:50:23.688Z,6.40
2022-10-11T20:53:16.227Z,6.34
2022-10-11T20:56:03.787Z,6.28
2022-10-11T20:58:52.466Z,6.23
2022-10-11T21:01:42.105Z,6.44
2022-10-11T21:04:30.186Z,6.37
2022-10-11T21:07:18.017Z,6.38
2022-10-11T21:10:07.715Z,6.22
2022-10-11T21:12:57.559Z,6.08
2022-10-11T21:15:45.415Z,6.20
2022-10-11T21:18:33.174Z,6.10
2022-10-11T21:21:21.084Z,6.01
2022-10-11T21:24:08.611Z,5.94
2022-10-11T21:27:00.595Z,5.88
2022-10-11T21:29:48.509Z,5.83
2022-10-11T21:32:36.846Z,5.94
2022-10-11T21:35:24.585Z,5.87
2022-10-11T21:38:12.787Z,5.74
2022-10-11T21:41:02.974Z,5.69
2022-10-11T21:43:52.695Z,5.69
2022-10-11T21:47:07.168Z,5.60
2022-10-11T21:49:48.474Z,6.14
2022-10-11T21:52:36.215Z,5.92
2022-10-11T21:55:23.631Z,5.66
2022-10-11T21:58:11.219Z,5.58
2022-10-11T22:01:00.640Z,5.56
2022-10-11T22:03:49.390Z,5.53
2022-10-11T22:06:37.691Z,5.55
2022-10-11T22:09:25.416Z,5.55
2022-10-11T22:12:12.792Z,5.57
2022-10-11T22:15:00.133Z,5.67
2022-10-11T22:17:48.932Z,5.66
2022-10-11T22:20:36.650Z,5.62
2022-10-11T22:23:24.248Z,5.57
2022-10-11T22:26:13.829Z,5.51
2022-10-11T22:29:01.381Z,5.48
2022-10-11T22:31:49.200Z,5.44
2022-10-11T22:34:37.950Z,5.63
2022-10-11T22:37:25.758Z,5.65
2022-10-11T22:40:13.593Z,5.54
2022-10-11T22:43:01.548Z,5.43
2022-10-11T22:45:49.107Z,5.32
2022-10-11T22:48:36.745Z,5.24
2022-10-11T22:51:25.670Z,5.20
2022-10-11T22:54:13.291Z,5.08
2022-10-11T22:57:00.792Z,5.07
2022-10-11T22:59:47.993Z,5.04
2022-10-11T23:02:35.164Z,4.91
2022-10-11T23:05:23.019Z,4.84
2022-10-11T23:08:11.684Z,4.90
2022-10-11T23:11:03.844Z,4.94
2022-10-11T23:13:51.445Z,4.91
2022-10-11T23:16:38.688Z,4.84
2022-10-11T23:19:26.294Z,4.83
2022-10-11T23:22:13.638Z,4.84
2022-10-11T23:25:02.322Z,4.83
2022-10-11T23:27:49.684Z,4.80
2022-10-11T23:30:37.022Z,4.78
2022-10-11T23:33:24.724Z,4.76
2022-10-11T23:36:16.616Z,4.73
2022-10-11T23:39:03.974Z,4.73
2022-10-11T23:41:52.882Z,4.88
2022-10-11T23:44:40.659Z,4.88
2022-10-11T23:47:27.530Z,4.68
2022-10-11T23:50:14.968Z,4.63
2022-10-11T23:53:02.757Z,4.55
2022-10-11T23:55:50.269Z,4.50
2022-10-11T23:58:39.196Z,4.40
